createdAt,value
2023-11-25T00:01:52.311Z,1.40
2023-11-25T00:04:20.656Z,1.35
2023-11-25T00:06:47.150Z,1.30
2023-11-25T00:09:16.960Z,1.30
2023-11-25T00:11:43.602Z,1.15
2023-11-25T00:14:10.324Z,1.20
2023-11-25T00:16:36.965Z,1.00
2023-11-25T00:19:07.066Z,1.00
2023-11-25T00:21:33.883Z,0.90
2023-11-25T00:24:00.457Z,0.93
2023-11-25T00:26:26.980Z,1.00
2023-11-25T00:28:53.508Z,0.93
2023-11-25T00:31:20.153Z,1.05
2023-11-25T00:33:46.811Z,1.23
2023-11-25T00:36:13.348Z,1.10
2023-11-25T00:38:39.877Z,0.90
2023-11-25T00:41:06.804Z,0.93
2023-11-25T00:43:33.593Z,0.70
2023-11-25T00:46:00.167Z,1.05
2023-11-25T00:48:27.037Z,1.02
2023-11-25T00:50:53.573Z,1.58
2023-11-25T00:53:20.426Z,1.25
2023-11-25T00:55:47.888Z,1.00
2023-11-25T00:58:14.512Z,1.20
2023-11-25T01:00:41.061Z,0.80
2023-11-25T01:03:08.018Z,1.98
2023-11-25T01:05:34.578Z,1.00
2023-11-25T01:08:01.071Z,0.80
2023-11-25T01:10:27.768Z,1.08
2023-11-25T01:12:54.308Z,1.50
2023-11-25T01:15:21.135Z,0.80
2023-11-25T01:17:47.680Z,0.95
2023-11-25T01:20:15.006Z,0.93
2023-11-25T01:22:41.760Z,0.90
2023-11-25T01:25:08.787Z,0.85
2023-11-25T01:27:36.744Z,1.10
2023-11-25T01:30:05.594Z,0.88
2023-11-25T01:32:32.515Z,1.05
2023-11-25T01:34:58.984Z,1.00
2023-11-25T01:37:27.855Z,1.52
2023-11-25T01:39:54.484Z,1.17
2023-11-25T01:42:21.245Z,0.75
2023-11-25T01:44:48.010Z,0.93
2023-11-25T01:47:15.028Z,0.90
2023-11-25T01:49:43.185Z,1.13
2023-11-25T01:52:10.449Z,1.00
2023-11-25T01:54:37.087Z,1.27
2023-11-25T01:57:03.918Z,1.25
2023-11-25T01:59:31.420Z,0.95
2023-11-25T02:01:58.435Z,1.42
2023-11-25T02:04:25.136Z,1.00
2023-11-25T02:06:51.678Z,1.13
2023-11-25T02:09:19.055Z,1.25
2023-11-25T02:11:58.861Z,1.55
2023-11-25T02:14:26.408Z,1.63
2023-11-25T02:16:53.366Z,1.27
2023-11-25T02:19:20.702Z,2.13
2023-11-25T02:21:47.243Z,1.58
2023-11-25T02:24:14.223Z,1.42
2023-11-25T02:26:40.965Z,2.13
2023-11-25T02:29:07.502Z,1.88
2023-11-25T02:31:34.088Z,1.50
2023-11-25T02:34:00.707Z,1.30
2023-11-25T02:36:28.043Z,1.38
2023-11-25T02:38:54.625Z,1.42
2023-11-25T02:41:21.171Z,1.70
2023-11-25T02:43:47.838Z,1.45
2023-11-25T02:46:14.860Z,1.55
2023-11-25T02:48:41.399Z,1.42
2023-11-25T02:51:10.748Z,1.25
2023-11-25T02:53:37.301Z,1.55
2023-11-25T02:56:03.952Z,1.25
2023-11-25T02:58:33.614Z,1.55
2023-11-25T03:01:08.107Z,1.58
2023-11-25T03:03:38.300Z,1.20
2023-11-25T03:06:07.233Z,1.42
2023-11-25T03:08:35.881Z,1.27
2023-11-25T03:11:09.740Z,1.63
2023-11-25T03:13:36.253Z,1.10
2023-11-25T03:16:02.763Z,1.10
2023-11-25T03:18:29.232Z,1.00
2023-11-25T03:20:55.692Z,0.93
2023-11-25T03:23:22.308Z,1.23
2023-11-25T03:25:48.884Z,1.00
2023-11-25T03:28:16.304Z,1.10
2023-11-25T03:30:42.819Z,1.08
2023-11-25T03:33:10.814Z,1.33
2023-11-25T03:35:37.544Z,1.75
2023-11-25T03:38:04.123Z,1.13
2023-11-25T03:40:30.970Z,1.10
2023-11-25T03:42:59.617Z,1.42
2023-11-25T03:45:27.265Z,1.20
2023-11-25T03:47:54.357Z,1.00
2023-11-25T03:50:20.920Z,1.20
2023-11-25T03:52:47.480Z,1.27
2023-11-25T03:55:15.023Z,1.48
2023-11-25T03:57:44.330Z,1.23
2023-11-25T04:00:17.909Z,1.15
2023-11-25T04:02:49.202Z,1.02
2023-11-25T04:05:19.760Z,1.20
2023-11-25T04:07:46.819Z,0.85
2023-11-25T04:10:14.444Z,1.02
2023-11-25T04:12:42.959Z,1.20
2023-11-25T04:15:13.851Z,1.00
2023-11-25T04:17:41.374Z,1.13
2023-11-25T04:20:14.341Z,0.90
2023-11-25T04:22:46.606Z,1.27
2023-11-25T04:25:14.998Z,1.10
2023-11-25T04:27:48.233Z,1.02
2023-11-25T04:30:17.017Z,1.15
2023-11-25T04:32:44.913Z,1.05
2023-11-25T04:35:11.831Z,0.93
2023-11-25T04:37:38.823Z,1.20
2023-11-25T04:40:06.713Z,1.10
2023-11-25T04:42:33.918Z,1.17
2023-11-25T04:45:00.989Z,1.40
2023-11-25T04:47:30.209Z,1.10
2023-11-25T04:49:56.754Z,1.50
2023-11-25T04:52:23.583Z,1.38
2023-11-25T04:54:51.083Z,1.27
2023-11-25T04:57:17.799Z,1.17
2023-11-25T04:59:44.405Z,1.40
2023-11-25T05:02:11.108Z,1.40
2023-11-25T05:04:37.809Z,1.75
2023-11-25T05:07:05.846Z,1.35
2023-11-25T05:09:33.101Z,1.50
2023-11-25T05:12:00.871Z,1.60
2023-11-25T05:14:27.925Z,1.35
2023-11-25T05:16:57.056Z,1.40
2023-11-25T05:19:23.844Z,1.60
2023-11-25T05:21:50.470Z,1.50
2023-11-25T05:24:16.975Z,1.30
2023-11-25T05:26:43.533Z,1.27
2023-11-25T05:29:10.077Z,1.50
2023-11-25T05:31:37.598Z,1.40
2023-11-25T05:34:05.967Z,1.58
2023-11-25T05:36:34.107Z,1.40
2023-11-25T05:39:01.417Z,1.40
2023-11-25T05:41:31.415Z,1.20
2023-11-25T05:43:58.890Z,1.33
2023-11-25T05:46:25.714Z,1.55
2023-11-25T05:48:53.624Z,1.60
2023-11-25T05:51:20.368Z,1.23
2023-11-25T05:53:47.343Z,1.45
2023-11-25T05:56:13.901Z,1.33
2023-11-25T05:58:40.408Z,1.38
2023-11-25T06:01:07.184Z,1.20
2023-11-25T06:03:33.932Z,1.15
2023-11-25T06:06:01.418Z,0.95
2023-11-25T06:08:27.916Z,0.95
2023-11-25T06:10:55.281Z,1.25
2023-11-25T06:13:21.864Z,1.10
2023-11-25T06:15:48.555Z,1.30
2023-11-25T06:18:15.849Z,1.05
2023-11-25T06:20:42.655Z,1.23
2023-11-25T06:23:09.187Z,1.10
2023-11-25T06:25:35.789Z,1.20
2023-11-25T06:28:02.277Z,1.00
2023-11-25T06:30:28.799Z,1.27
2023-11-25T06:32:55.291Z,1.17
2023-11-25T06:35:24.833Z,1.00
2023-11-25T06:37:53.007Z,1.20
2023-11-25T06:40:19.630Z,1.30
2023-11-25T06:42:46.205Z,0.85
2023-11-25T06:45:15.289Z,1.35
2023-11-25T06:47:43.051Z,1.20
2023-11-25T06:50:11.093Z,1.25
2023-11-25T06:52:37.623Z,0.93
2023-11-25T06:55:05.530Z,0.90
2023-11-25T06:57:32.041Z,1.10
2023-11-25T06:59:58.531Z,1.00
2023-11-25T07:02:28.305Z,1.02
2023-11-25T07:04:54.976Z,1.08
2023-11-25T07:07:22.063Z,0.95
2023-11-25T07:09:48.626Z,1.20
2023-11-25T07:12:16.474Z,1.13
2023-11-25T07:14:44.065Z,2.30
2023-11-25T07:17:13.180Z,2.60
2023-11-25T07:19:42.488Z,2.25
2023-11-25T07:22:12.198Z,2.35
2023-11-25T07:24:40.774Z,2.63
2023-11-25T07:27:08.174Z,2.83
2023-11-25T07:29:36.163Z,2.55
2023-11-25T07:32:03.427Z,2.13
2023-11-25T07:34:33.192Z,2.00
2023-11-25T07:37:00.626Z,2.53
2023-11-25T07:39:30.762Z,1.80
2023-11-25T07:41:59.094Z,1.50
2023-11-25T07:44:28.106Z,1.52
2023-11-25T07:46:54.913Z,1.92
2023-11-25T07:49:21.486Z,1.65
2023-11-25T07:51:49.768Z,1.50
2023-11-25T07:54:17.008Z,1.50
2023-11-25T07:56:43.555Z,1.58
2023-11-25T07:59:11.017Z,1.33
2023-11-25T08:01:38.410Z,1.52
2023-11-25T08:04:05.972Z,1.73
2023-11-25T08:06:32.633Z,1.45
2023-11-25T08:08:59.792Z,1.08
2023-11-25T08:11:27.734Z,1.10
2023-11-25T08:13:54.622Z,1.30
2023-11-25T08:16:21.484Z,1.30
2023-11-25T08:18:48.542Z,1.10
2023-11-25T08:21:15.881Z,1.35
2023-11-25T08:23:43.476Z,1.50
2023-11-25T08:26:20.517Z,1.05
2023-11-25T08:28:47.380Z,0.95
2023-11-25T08:31:13.967Z,1.00
2023-11-25T08:33:42.154Z,1.20
2023-11-25T08:36:11.119Z,1.20
2023-11-25T08:38:38.630Z,1.33
2023-11-25T08:41:08.301Z,1.45
2023-11-25T08:43:44.928Z,1.70
2023-11-25T08:46:11.826Z,1.48
2023-11-25T08:48:38.652Z,1.40
2023-11-25T08:51:08.992Z,1.30
2023-11-25T08:53:35.806Z,1.15
2023-11-25T08:56:04.198Z,1.30
2023-11-25T08:58:30.790Z,1.40
2023-11-25T09:00:57.666Z,1.60
2023-11-25T09:03:24.383Z,1.35
2023-11-25T09:05:51.115Z,1.13
2023-11-25T09:08:17.906Z,1.67
2023-11-25T09:10:44.653Z,1.50
2023-11-25T09:13:12.074Z,1.30
2023-11-25T09:15:41.945Z,1.45
2023-11-25T09:18:09.428Z,1.58
2023-11-25T09:20:35.972Z,1.65
2023-11-25T09:23:02.534Z,1.58
2023-11-25T09:25:31.325Z,1.50
2023-11-25T09:27:58.075Z,2.00
2023-11-25T09:30:25.402Z,1.60
2023-11-25T09:32:51.990Z,1.50
2023-11-25T09:35:18.592Z,1.70
2023-11-25T09:37:46.420Z,1.40
2023-11-25T09:40:16.527Z,1.38
2023-11-25T09:42:44.600Z,1.77
2023-11-25T09:45:12.225Z,1.70
2023-11-25T09:47:39.513Z,1.60
2023-11-25T09:50:07.308Z,1.60
2023-11-25T09:52:40.807Z,1.30
2023-11-25T09:55:10.285Z,1.40
2023-11-25T09:57:37.717Z,1.67
2023-11-25T10:00:07.684Z,1.55
2023-11-25T10:02:36.411Z,1.40
2023-11-25T10:05:06.220Z,1.30
2023-11-25T10:07:32.914Z,1.48
2023-11-25T10:09:59.452Z,1.20
2023-11-25T10:12:25.943Z,1.50
2023-11-25T10:14:53.994Z,1.50
2023-11-25T10:17:25.164Z,1.20
2023-11-25T10:20:07.342Z,1.70
2023-11-25T10:22:45.518Z,1.35
2023-11-25T10:25:12.064Z,1.15
2023-11-25T10:27:41.730Z,1.40
2023-11-25T10:30:09.781Z,1.60
2023-11-25T10:32:36.546Z,1.35
2023-11-25T10:35:03.803Z,1.60
2023-11-25T10:37:33.697Z,1.40
2023-11-25T10:40:00.569Z,1.20
2023-11-25T10:42:29.008Z,1.02
2023-11-25T10:44:55.528Z,1.17
2023-11-25T10:47:32.381Z,1.42
2023-11-25T10:50:04.903Z,1.00
2023-11-25T10:52:39.633Z,0.88
2023-11-25T10:55:09.985Z,1.05
2023-11-25T10:57:37.661Z,1.10
2023-11-25T11:00:13.926Z,0.88
2023-11-25T11:02:51.942Z,2.38
2023-11-25T11:05:30.510Z,1.10
2023-11-25T11:10:39.426Z,0.60
2023-11-25T11:13:09.500Z,0.70
2023-11-25T11:15:38.620Z,0.68
2023-11-25T11:18:19.690Z,0.57
2023-11-25T11:20:47.783Z,0.60
2023-11-25T11:23:16.949Z,0.47
2023-11-25T11:25:51.942Z,0.50
2023-11-25T11:28:26.467Z,0.70
2023-11-25T11:31:30.611Z,0.70
2023-11-25T11:33:57.406Z,0.60
2023-11-25T11:36:31.299Z,1.00
2023-11-25T11:38:58.269Z,0.80
2023-11-25T11:41:26.278Z,1.13
2023-11-25T11:44:13.151Z,0.60
2023-11-25T11:46:43.257Z,0.70
2023-11-25T11:49:13.030Z,0.80
2023-11-25T11:52:01.554Z,0.95
2023-11-25T11:54:29.580Z,1.48
2023-11-25T11:56:59.056Z,1.20
2023-11-25T11:59:58.737Z,1.10
2023-11-25T12:02:28.615Z,0.98
2023-11-25T12:04:56.010Z,0.98
2023-11-25T12:07:22.616Z,0.98
2023-11-25T12:09:49.455Z,0.80
2023-11-25T12:12:16.059Z,0.85
2023-11-25T12:14:42.710Z,0.90
2023-11-25T12:17:09.869Z,1.00
2023-11-25T12:19:36.440Z,0.90
2023-11-25T12:22:07.105Z,0.85
2023-11-25T12:24:36.393Z,1.45
2023-11-25T12:27:06.550Z,1.10
2023-11-25T12:29:36.339Z,1.10
2023-11-25T12:32:03.301Z,1.08
2023-11-25T12:34:33.601Z,1.00
2023-11-25T12:37:01.219Z,1.08
2023-11-25T12:39:28.197Z,0.90
2023-11-25T12:41:54.974Z,0.82
2023-11-25T12:44:22.083Z,1.02
2023-11-25T12:47:02.849Z,1.08
2023-11-25T12:49:30.759Z,0.90
2023-11-25T12:51:57.700Z,0.82
2023-11-25T12:54:24.712Z,0.90
2023-11-25T12:56:56.052Z,1.00
2023-11-25T12:59:29.560Z,1.15
2023-11-25T13:02:04.405Z,1.08
2023-11-25T13:04:31.002Z,0.80
2023-11-25T13:07:01.031Z,1.00
2023-11-25T13:09:32.497Z,1.10
2023-11-25T13:12:00.063Z,0.63
2023-11-25T13:14:26.667Z,0.93
2023-11-25T13:16:53.271Z,0.77
2023-11-25T13:19:23.119Z,0.88
2023-11-25T13:21:50.234Z,1.00
2023-11-25T13:24:16.923Z,1.00
2023-11-25T13:26:43.793Z,0.77
2023-11-25T13:29:10.956Z,1.10
2023-11-25T13:31:37.567Z,1.17
2023-11-25T13:34:06.451Z,1.10
2023-11-25T13:36:33.059Z,1.02
2023-11-25T13:38:59.970Z,1.00
2023-11-25T13:41:27.765Z,0.70
2023-11-25T13:43:55.668Z,0.93
2023-11-25T13:46:22.398Z,1.05
2023-11-25T13:48:49.095Z,0.80
2023-11-25T13:51:16.260Z,0.70
2023-11-25T13:53:42.830Z,0.82
2023-11-25T13:56:11.315Z,0.90
2023-11-25T13:58:37.959Z,1.10
2023-11-25T14:01:06.064Z,0.70
2023-11-25T14:03:32.913Z,0.80
2023-11-25T14:05:59.597Z,0.90
2023-11-25T14:08:29.808Z,1.00
2023-11-25T14:10:57.240Z,0.90
2023-11-25T14:13:24.704Z,1.27
2023-11-25T14:15:51.392Z,1.10
2023-11-25T14:18:17.905Z,0.75
2023-11-25T14:20:44.522Z,0.90
2023-11-25T14:23:11.476Z,1.02
2023-11-25T14:25:38.321Z,0.90
2023-11-25T14:28:05.155Z,0.80
2023-11-25T14:30:34.486Z,1.52
2023-11-25T14:33:04.793Z,1.55
2023-11-25T14:35:33.051Z,0.85
2023-11-25T14:38:01.811Z,1.15
2023-11-25T14:40:30.379Z,0.70
2023-11-25T14:42:57.158Z,0.75
2023-11-25T14:45:23.660Z,0.80
2023-11-25T14:47:50.247Z,0.98
2023-11-25T14:50:16.825Z,1.23
2023-11-25T14:52:43.358Z,0.90
2023-11-25T14:55:10.829Z,0.90
2023-11-25T14:57:37.749Z,1.00
2023-11-25T15:00:06.496Z,1.20
2023-11-25T15:02:33.106Z,1.15
2023-11-25T15:04:59.703Z,1.10
2023-11-25T15:07:26.302Z,1.13
2023-11-25T15:09:52.814Z,0.90
2023-11-25T15:12:19.332Z,0.77
2023-11-25T15:14:45.824Z,1.10
2023-11-25T15:17:13.012Z,1.35
2023-11-25T15:19:42.311Z,1.60
2023-11-25T15:22:11.353Z,1.33
2023-11-25T15:24:41.013Z,1.10
2023-11-25T15:27:08.430Z,0.98
2023-11-25T15:29:34.988Z,1.10
2023-11-25T15:32:01.586Z,1.20
2023-11-25T15:34:28.128Z,1.30
2023-11-25T15:36:55.001Z,0.88
2023-11-25T15:39:25.558Z,1.33
2023-11-25T15:41:52.036Z,1.30
2023-11-25T15:44:18.615Z,1.73
2023-11-25T15:46:46.022Z,1.42
2023-11-25T15:49:13.548Z,1.15
2023-11-25T15:51:41.028Z,1.45
2023-11-25T15:54:07.703Z,1.50
2023-11-25T15:56:34.279Z,1.88
2023-11-25T15:59:02.421Z,1.77
2023-11-25T16:01:29.823Z,1.80
2023-11-25T16:03:57.789Z,1.90
2023-11-25T16:06:25.924Z,2.47
2023-11-25T16:08:52.872Z,1.50
2023-11-25T16:11:19.707Z,2.22
2023-11-25T16:13:46.248Z,2.28
2023-11-25T16:16:12.951Z,1.70
2023-11-25T16:18:39.826Z,2.75
2023-11-25T16:21:06.635Z,2.08
2023-11-25T16:23:35.447Z,1.73
2023-11-25T16:26:03.708Z,2.00
2023-11-25T16:28:31.892Z,1.88
2023-11-25T16:30:59.242Z,2.30
2023-11-25T16:33:25.842Z,2.20
2023-11-25T16:35:52.483Z,2.00
2023-11-25T16:38:21.139Z,2.30
2023-11-25T16:40:47.799Z,1.70
2023-11-25T16:43:14.497Z,1.73
2023-11-25T16:45:41.026Z,2.00
2023-11-25T16:48:07.546Z,1.92
2023-11-25T16:50:38.880Z,1.77
2023-11-25T16:53:06.094Z,2.30
2023-11-25T16:55:32.692Z,2.15
2023-11-25T16:57:59.604Z,1.65
2023-11-25T17:00:26.232Z,1.63
2023-11-25T17:02:52.840Z,1.67
2023-11-25T17:05:19.508Z,1.70
2023-11-25T17:07:46.578Z,1.90
2023-11-25T17:10:13.100Z,2.15
2023-11-25T17:15:06.409Z,1.80
2023-11-25T17:17:33.075Z,2.25
2023-11-25T17:19:59.864Z,2.20
2023-11-25T17:22:26.455Z,1.90
2023-11-25T17:24:52.955Z,2.03
2023-11-25T17:27:19.449Z,2.42
2023-11-25T17:29:46.016Z,2.42
2023-11-25T17:32:13.239Z,2.60
2023-11-25T17:34:39.809Z,2.28
2023-11-25T17:37:06.781Z,2.40
2023-11-25T17:39:34.410Z,2.40
2023-11-25T17:42:01.050Z,2.17
2023-11-25T17:44:27.556Z,2.22
2023-11-25T17:46:54.128Z,2.92
2023-11-25T17:49:20.662Z,2.25
2023-11-25T17:51:47.938Z,2.05
2023-11-25T17:54:14.447Z,1.90
2023-11-25T17:56:40.968Z,2.55
2023-11-25T17:59:07.578Z,2.53
2023-11-25T18:01:34.337Z,2.50
2023-11-25T18:04:01.013Z,2.33
2023-11-25T18:06:27.527Z,2.45
2023-11-25T18:08:54.115Z,2.20
2023-11-25T18:11:20.778Z,2.38
2023-11-25T18:13:48.591Z,2.28
2023-11-25T18:16:18.259Z,2.25
2023-11-25T18:18:44.873Z,2.45
2023-11-25T18:21:12.139Z,2.13
2023-11-25T18:23:39.005Z,2.17
2023-11-25T18:26:05.838Z,1.98
2023-11-25T18:28:32.740Z,2.60
2023-11-25T18:30:59.606Z,2.83
2023-11-25T18:33:26.661Z,2.45
2023-11-25T18:35:53.160Z,2.50
2023-11-25T18:38:19.820Z,2.50
2023-11-25T18:40:46.451Z,2.20
2023-11-25T18:43:13.289Z,1.90
2023-11-25T18:45:39.963Z,2.42
2023-11-25T18:48:07.875Z,2.67
2023-11-25T18:50:35.104Z,2.58
2023-11-25T18:53:01.942Z,2.60
2023-11-25T18:55:28.539Z,2.63
2023-11-25T18:57:55.082Z,3.05
2023-11-25T19:00:21.763Z,2.72
2023-11-25T19:02:48.955Z,2.58
2023-11-25T19:05:16.657Z,2.63
2023-11-25T19:07:45.244Z,3.00
2023-11-25T19:10:11.966Z,2.65
2023-11-25T19:12:38.516Z,2.60
2023-11-25T19:15:05.717Z,2.60
2023-11-25T19:17:32.336Z,2.55
2023-11-25T19:19:58.951Z,2.33
2023-11-25T19:22:25.452Z,2.25
2023-11-25T19:24:51.938Z,2.15
2023-11-25T19:27:18.473Z,2.10
2023-11-25T19:29:44.972Z,2.65
2023-11-25T19:32:11.616Z,2.40
2023-11-25T19:34:38.729Z,2.72
2023-11-25T19:37:05.538Z,2.60
2023-11-25T19:39:32.086Z,2.22
2023-11-25T19:41:59.166Z,2.20
2023-11-25T19:44:25.708Z,2.33
2023-11-25T19:46:55.879Z,2.60
2023-11-25T19:49:22.798Z,2.38
2023-11-25T19:51:50.123Z,2.40
2023-11-25T19:54:22.754Z,2.22
2023-11-25T19:56:52.566Z,2.47
2023-11-25T19:59:19.992Z,2.10
2023-11-25T20:01:46.780Z,2.00
2023-11-25T20:04:13.372Z,2.78
2023-11-25T20:06:39.904Z,2.78
2023-11-25T20:09:06.859Z,2.47
2023-11-25T20:11:33.439Z,3.53
2023-11-25T20:14:00.699Z,2.75
2023-11-25T20:16:33.494Z,3.00
2023-11-25T20:19:00.530Z,3.50
2023-11-25T20:21:27.083Z,3.53
2023-11-25T20:23:53.616Z,3.05
2023-11-25T20:26:20.174Z,3.15
2023-11-25T20:28:47.162Z,3.25
2023-11-25T20:31:13.964Z,3.28
2023-11-25T20:33:42.005Z,3.00
2023-11-25T20:36:14.274Z,3.55
2023-11-25T20:38:41.484Z,3.00
2023-11-25T20:41:13.812Z,3.03
2023-11-25T20:46:07.098Z,2.80
2023-11-25T20:48:34.778Z,2.30
2023-11-25T20:51:06.165Z,3.13
2023-11-25T20:53:33.253Z,2.92
2023-11-25T20:55:59.842Z,2.70
2023-11-25T20:58:28.726Z,3.30
2023-11-25T21:00:56.246Z,2.85
2023-11-25T21:03:23.013Z,2.88
2023-11-25T21:05:49.609Z,3.17
2023-11-25T21:08:17.074Z,2.95
2023-11-25T21:10:43.765Z,2.65
2023-11-25T21:13:10.274Z,3.67
2023-11-25T21:15:36.834Z,3.22
2023-11-25T21:18:04.157Z,3.00
2023-11-25T21:20:30.705Z,2.60
2023-11-25T21:25:23.762Z,3.53
2023-11-25T21:27:50.974Z,3.45
2023-11-25T21:30:17.650Z,3.00
2023-11-25T21:32:44.192Z,2.90
2023-11-25T21:35:10.856Z,3.42
2023-11-25T21:37:37.425Z,2.92
2023-11-25T21:42:46.919Z,3.30
2023-11-25T21:45:14.177Z,2.75
2023-11-25T21:47:41.104Z,3.33
2023-11-25T21:50:08.506Z,3.58
2023-11-25T21:52:37.117Z,3.65
2023-11-25T21:55:04.836Z,3.55
2023-11-25T21:57:31.382Z,3.55
2023-11-25T21:59:57.897Z,3.05
2023-11-25T22:02:25.223Z,2.97
2023-11-25T22:04:51.951Z,3.50
2023-11-25T22:07:18.473Z,3.67
2023-11-25T22:12:12.178Z,3.03
2023-11-25T22:14:38.812Z,3.05
2023-11-25T22:17:05.431Z,2.80
2023-11-25T22:19:31.950Z,2.67
2023-11-25T22:24:26.681Z,3.30
2023-11-25T22:27:10.914Z,3.08
2023-11-25T22:29:37.571Z,2.97
2023-11-25T22:32:04.918Z,3.17
2023-11-25T22:34:31.534Z,3.15
2023-11-25T22:36:58.646Z,3.53
2023-11-25T22:39:25.280Z,3.30
2023-11-25T22:41:52.017Z,2.95
2023-11-25T22:44:19.179Z,2.97
2023-11-25T22:46:45.911Z,3.05
2023-11-25T22:49:12.498Z,3.30
2023-11-25T22:51:39.042Z,2.80
2023-11-25T22:54:05.627Z,3.42
2023-11-25T22:56:32.084Z,2.78
2023-11-25T23:01:36.793Z,2.65
2023-11-25T23:04:03.984Z,2.95
2023-11-25T23:06:36.199Z,3.70
2023-11-25T23:09:05.568Z,3.13
2023-11-25T23:11:32.737Z,3.30
2023-11-25T23:14:00.246Z,3.20
2023-11-25T23:16:26.998Z,3.88
2023-11-25T23:18:53.517Z,3.15
2023-11-25T23:23:48.856Z,2.80
2023-11-25T23:26:16.196Z,3.72
2023-11-25T23:28:42.985Z,3.45
2023-11-25T23:31:09.868Z,2.92
2023-11-25T23:33:36.473Z,3.55
2023-11-25T23:36:05.187Z,3.38
2023-11-25T23:38:32.413Z,3.60
2023-11-25T23:40:59.421Z,3.17
2023-11-25T23:43:26.084Z,3.67
2023-11-25T23:45:52.649Z,3.53
2023-11-25T23:48:19.123Z,3.33
2023-11-25T23:53:13.195Z,3.58
2023-11-25T23:55:40.713Z,3.70
2023-11-25T23:58:07.283Z,3.53
